sensor_id;sensor_type;location;lat;lon;timestamp;P1;durP1;ratioP1;P2;durP2;ratioP2
57891;SDS011;43708;48.828;9.166;2023-02-27T00:02:12;0.40;;;0.40;;
57891;SDS011;43708;48.828;9.166;2023-02-27T00:04:37;0.30;;;0.22;;
57891;SDS011;43708;48.828;9.166;2023-02-27T00:07:03;0.50;;;0.40;;
57891;SDS011;43708;48.828;9.166;2023-02-27T00:09:28;0.75;;;0.43;;
57891;SDS011;43708;48.828;9.166;2023-02-27T00:11:54;0.63;;;0.55;;
57891;SDS011;43708;48.828;9.166;2023-02-27T00:14:19;0.40;;;0.30;;
57891;SDS011;43708;48.828;9.166;2023-02-27T00:16:46;0.40;;;0.40;;
57891;SDS011;43708;48.828;9.166;2023-02-27T00:19:13;0.50;;;0.30;;
57891;SDS011;43708;48.828;9.166;2023-02-27T00:21:38;0.43;;;0.40;;
57891;SDS011;43708;48.828;9.166;2023-02-27T00:24:04;1.00;;;0.63;;
57891;SDS011;43708;48.828;9.166;2023-02-27T00:26:30;0.60;;;0.40;;
57891;SDS011;43708;48.828;9.166;2023-02-27T00:28:55;0.68;;;0.50;;
57891;SDS011;43708;48.828;9.166;2023-02-27T00:31:21;0.50;;;0.40;;
57891;SDS011;43708;48.828;9.166;2023-02-27T00:33:46;0.50;;;0.40;;
57891;SDS011;43708;48.828;9.166;2023-02-27T00:36:12;0.60;;;0.45;;
57891;SDS011;43708;48.828;9.166;2023-02-27T00:38:38;0.73;;;0.65;;
57891;SDS011;43708;48.828;9.166;2023-02-27T00:41:03;0.50;;;0.40;;
57891;SDS011;43708;48.828;9.166;2023-02-27T00:43:29;0.47;;;0.45;;
57891;SDS011;43708;48.828;9.166;2023-02-27T00:45:55;0.50;;;0.40;;
57891;SDS011;43708;48.828;9.166;2023-02-27T00:48:20;0.60;;;0.50;;
57891;SDS011;43708;48.828;9.166;2023-02-27T00:50:46;0.60;;;0.40;;
57891;SDS011;43708;48.828;9.166;2023-02-27T00:53:13;0.55;;;0.50;;
57891;SDS011;43708;48.828;9.166;2023-02-27T00:55:40;0.40;;;0.30;;
57891;SDS011;43708;48.828;9.166;2023-02-27T00:58:05;0.40;;;0.40;;
57891;SDS011;43708;48.828;9.166;2023-02-27T01:00:31;0.40;;;0.30;;
57891;SDS011;43708;48.828;9.166;2023-02-27T01:02:56;0.38;;;0.30;;
57891;SDS011;43708;48.828;9.166;2023-02-27T01:05:22;0.30;;;0.30;;
57891;SDS011;43708;48.828;9.166;2023-02-27T01:07:48;0.50;;;0.40;;
57891;SDS011;43708;48.828;9.166;2023-02-27T01:10:13;0.50;;;0.38;;
57891;SDS011;43708;48.828;9.166;2023-02-27T01:12:39;0.40;;;0.30;;
57891;SDS011;43708;48.828;9.166;2023-02-27T01:15:06;0.57;;;0.38;;
57891;SDS011;43708;48.828;9.166;2023-02-27T01:17:32;0.30;;;0.30;;
57891;SDS011;43708;48.828;9.166;2023-02-27T01:19:58;0.32;;;0.25;;
57891;SDS011;43708;48.828;9.166;2023-02-27T01:22:24;0.30;;;0.30;;
57891;SDS011;43708;48.828;9.166;2023-02-27T01:24:51;0.35;;;0.30;;
57891;SDS011;43708;48.828;9.166;2023-02-27T01:27:16;0.40;;;0.30;;
57891;SDS011;43708;48.828;9.166;2023-02-27T01:29:42;0.30;;;0.20;;
57891;SDS011;43708;48.828;9.166;2023-02-27T01:32:07;0.30;;;0.30;;
57891;SDS011;43708;48.828;9.166;2023-02-27T01:34:33;0.40;;;0.30;;
57891;SDS011;43708;48.828;9.166;2023-02-27T01:36:58;0.40;;;0.40;;
57891;SDS011;43708;48.828;9.166;2023-02-27T01:39:24;0.40;;;0.30;;
57891;SDS011;43708;48.828;9.166;2023-02-27T01:41:50;0.40;;;0.38;;
57891;SDS011;43708;48.828;9.166;2023-02-27T01:44:16;0.40;;;0.20;;
57891;SDS011;43708;48.828;9.166;2023-02-27T01:46:42;0.50;;;0.30;;
57891;SDS011;43708;48.828;9.166;2023-02-27T01:49:16;0.43;;;0.32;;
57891;SDS011;43708;48.828;9.166;2023-02-27T01:51:52;0.50;;;0.30;;
57891;SDS011;43708;48.828;9.166;2023-02-27T01:54:25;0.40;;;0.30;;
57891;SDS011;43708;48.828;9.166;2023-02-27T01:56:52;0.40;;;0.35;;
57891;SDS011;43708;48.828;9.166;2023-02-27T01:59:18;0.52;;;0.38;;
57891;SDS011;43708;48.828;9.166;2023-02-27T02:01:45;0.43;;;0.32;;
57891;SDS011;43708;48.828;9.166;2023-02-27T02:04:13;0.70;;;0.40;;
57891;SDS011;43708;48.828;9.166;2023-02-27T02:06:58;0.82;;;0.30;;
57891;SDS011;43708;48.828;9.166;2023-02-27T02:09:26;0.30;;;0.20;;
57891;SDS011;43708;48.828;9.166;2023-02-27T02:11:54;0.47;;;0.30;;
57891;SDS011;43708;48.828;9.166;2023-02-27T02:14:21;0.60;;;0.50;;
57891;SDS011;43708;48.828;9.166;2023-02-27T02:37:06;0.40;;;0.25;;
57891;SDS011;43708;48.828;9.166;2023-02-27T02:42:35;0.40;;;0.30;;
57891;SDS011;43708;48.828;9.166;2023-02-27T02:47:41;0.55;;;0.28;;
57891;SDS011;43708;48.828;9.166;2023-02-27T02:55:47;0.38;;;0.30;;
57891;SDS011;43708;48.828;9.166;2023-02-27T03:01:12;0.52;;;0.30;;
57891;SDS011;43708;48.828;9.166;2023-02-27T03:06:37;0.40;;;0.30;;
57891;SDS011;43708;48.828;9.166;2023-02-27T03:09:11;0.40;;;0.28;;
57891;SDS011;43708;48.828;9.166;2023-02-27T03:11:45;0.50;;;0.40;;
57891;SDS011;43708;48.828;9.166;2023-02-27T03:14:15;0.50;;;0.50;;
57891;SDS011;43708;48.828;9.166;2023-02-27T03:16:53;0.40;;;0.30;;
57891;SDS011;43708;48.828;9.166;2023-02-27T03:19:24;0.38;;;0.25;;
57891;SDS011;43708;48.828;9.166;2023-02-27T03:21:56;0.40;;;0.30;;
57891;SDS011;43708;48.828;9.166;2023-02-27T03:24:31;0.60;;;0.40;;
57891;SDS011;43708;48.828;9.166;2023-02-27T03:27:13;0.30;;;0.20;;
57891;SDS011;43708;48.828;9.166;2023-02-27T03:29:46;0.65;;;0.40;;
57891;SDS011;43708;48.828;9.166;2023-02-27T03:32:17;0.40;;;0.30;;
57891;SDS011;43708;48.828;9.166;2023-02-27T03:34:53;0.40;;;0.40;;
57891;SDS011;43708;48.828;9.166;2023-02-27T03:40:13;0.47;;;0.40;;
57891;SDS011;43708;48.828;9.166;2023-02-27T03:45:55;0.50;;;0.40;;
57891;SDS011;43708;48.828;9.166;2023-02-27T03:48:52;0.40;;;0.40;;
57891;SDS011;43708;48.828;9.166;2023-02-27T03:51:18;0.68;;;0.30;;
57891;SDS011;43708;48.828;9.166;2023-02-27T03:53:47;0.30;;;0.20;;
57891;SDS011;43708;48.828;9.166;2023-02-27T03:56:15;0.40;;;0.30;;
57891;SDS011;43708;48.828;9.166;2023-02-27T03:58:46;0.40;;;0.30;;
57891;SDS011;43708;48.828;9.166;2023-02-27T04:01:12;0.30;;;0.20;;
57891;SDS011;43708;48.828;9.166;2023-02-27T04:03:50;0.40;;;0.32;;
57891;SDS011;43708;48.828;9.166;2023-02-27T04:06:22;0.32;;;0.30;;
57891;SDS011;43708;48.828;9.166;2023-02-27T04:09:07;0.35;;;0.20;;
57891;SDS011;43708;48.828;9.166;2023-02-27T04:11:54;0.55;;;0.30;;
57891;SDS011;43708;48.828;9.166;2023-02-27T04:14:34;0.30;;;0.30;;
57891;SDS011;43708;48.828;9.166;2023-02-27T04:17:20;0.30;;;0.20;;
57891;SDS011;43708;48.828;9.166;2023-02-27T04:20:01;0.40;;;0.32;;
57891;SDS011;43708;48.828;9.166;2023-02-27T04:22:49;0.30;;;0.22;;
57891;SDS011;43708;48.828;9.166;2023-02-27T04:33:51;0.43;;;0.40;;
57891;SDS011;43708;48.828;9.166;2023-02-27T04:36:33;0.30;;;0.22;;
57891;SDS011;43708;48.828;9.166;2023-02-27T04:39:30;0.30;;;0.30;;
57891;SDS011;43708;48.828;9.166;2023-02-27T04:42:10;0.38;;;0.30;;
57891;SDS011;43708;48.828;9.166;2023-02-27T04:44:40;0.40;;;0.22;;
57891;SDS011;43708;48.828;9.166;2023-02-27T04:47:08;0.47;;;0.30;;
57891;SDS011;43708;48.828;9.166;2023-02-27T04:49:38;0.40;;;0.25;;
57891;SDS011;43708;48.828;9.166;2023-02-27T04:52:10;0.40;;;0.40;;
57891;SDS011;43708;48.828;9.166;2023-02-27T04:54:57;0.38;;;0.32;;
57891;SDS011;43708;48.828;9.166;2023-02-27T04:57:31;0.40;;;0.22;;
57891;SDS011;43708;48.828;9.166;2023-02-27T05:00:03;0.50;;;0.30;;
57891;SDS011;43708;48.828;9.166;2023-02-27T05:02:33;0.75;;;0.30;;
57891;SDS011;43708;48.828;9.166;2023-02-27T05:05:02;0.30;;;0.30;;
57891;SDS011;43708;48.828;9.166;2023-02-27T05:10:45;0.30;;;0.20;;
57891;SDS011;43708;48.828;9.166;2023-02-27T05:13:20;0.40;;;0.40;;
57891;SDS011;43708;48.828;9.166;2023-02-27T05:15:55;0.40;;;0.40;;
57891;SDS011;43708;48.828;9.166;2023-02-27T05:18:27;0.93;;;0.70;;
57891;SDS011;43708;48.828;9.166;2023-02-27T05:21:00;0.35;;;0.30;;
57891;SDS011;43708;48.828;9.166;2023-02-27T05:31:42;0.50;;;0.40;;
57891;SDS011;43708;48.828;9.166;2023-02-27T05:34:29;1.25;;;0.50;;
57891;SDS011;43708;48.828;9.166;2023-02-27T05:37:10;0.80;;;0.30;;
57891;SDS011;43708;48.828;9.166;2023-02-27T05:39:40;0.85;;;0.50;;
57891;SDS011;43708;48.828;9.166;2023-02-27T05:42:29;0.60;;;0.40;;
57891;SDS011;43708;48.828;9.166;2023-02-27T05:45:06;4.35;;;0.60;;
57891;SDS011;43708;48.828;9.166;2023-02-27T05:47:46;1.95;;;0.50;;
57891;SDS011;43708;48.828;9.166;2023-02-27T05:50:20;0.70;;;0.50;;
57891;SDS011;43708;48.828;9.166;2023-02-27T05:52:50;0.47;;;0.40;;
57891;SDS011;43708;48.828;9.166;2023-02-27T05:55:20;0.30;;;0.30;;
57891;SDS011;43708;48.828;9.166;2023-02-27T05:57:55;0.98;;;0.40;;
57891;SDS011;43708;48.828;9.166;2023-02-27T06:00:29;0.90;;;0.55;;
57891;SDS011;43708;48.828;9.166;2023-02-27T06:03:11;0.93;;;0.65;;
57891;SDS011;43708;48.828;9.166;2023-02-27T06:05:37;1.38;;;0.50;;
57891;SDS011;43708;48.828;9.166;2023-02-27T06:08:05;0.52;;;0.40;;
57891;SDS011;43708;48.828;9.166;2023-02-27T06:10:31;1.35;;;0.60;;
57891;SDS011;43708;48.828;9.166;2023-02-27T06:12:57;0.93;;;0.63;;
57891;SDS011;43708;48.828;9.166;2023-02-27T06:15:22;0.65;;;0.50;;
57891;SDS011;43708;48.828;9.166;2023-02-27T06:17:48;0.90;;;0.68;;
57891;SDS011;43708;48.828;9.166;2023-02-27T06:20:14;0.93;;;0.52;;
57891;SDS011;43708;48.828;9.166;2023-02-27T06:22:40;1.73;;;0.57;;
57891;SDS011;43708;48.828;9.166;2023-02-27T06:25:07;0.43;;;0.43;;
57891;SDS011;43708;48.828;9.166;2023-02-27T06:27:33;0.85;;;0.60;;
57891;SDS011;43708;48.828;9.166;2023-02-27T06:29:58;2.83;;;0.60;;
57891;SDS011;43708;48.828;9.166;2023-02-27T06:32:24;1.88;;;0.80;;
57891;SDS011;43708;48.828;9.166;2023-02-27T06:34:50;2.15;;;0.80;;
57891;SDS011;43708;48.828;9.166;2023-02-27T06:37:17;0.98;;;0.70;;
57891;SDS011;43708;48.828;9.166;2023-02-27T06:39:42;1.10;;;0.77;;
57891;SDS011;43708;48.828;9.166;2023-02-27T06:42:08;0.77;;;0.60;;
57891;SDS011;43708;48.828;9.166;2023-02-27T06:44:33;1.00;;;0.75;;
57891;SDS011;43708;48.828;9.166;2023-02-27T06:47:01;1.20;;;0.70;;
57891;SDS011;43708;48.828;9.166;2023-02-27T06:49:27;2.28;;;0.70;;
57891;SDS011;43708;48.828;9.166;2023-02-27T06:51:54;1.10;;;0.68;;
57891;SDS011;43708;48.828;9.166;2023-02-27T06:54:21;0.90;;;0.70;;
57891;SDS011;43708;48.828;9.166;2023-02-27T06:56:46;0.77;;;0.70;;
57891;SDS011;43708;48.828;9.166;2023-02-27T06:59:12;2.38;;;1.00;;
57891;SDS011;43708;48.828;9.166;2023-02-27T07:01:38;0.68;;;0.57;;
57891;SDS011;43708;48.828;9.166;2023-02-27T07:04:04;1.23;;;0.80;;
57891;SDS011;43708;48.828;9.166;2023-02-27T07:06:29;1.20;;;0.70;;
57891;SDS011;43708;48.828;9.166;2023-02-27T07:08:55;1.77;;;0.80;;
57891;SDS011;43708;48.828;9.166;2023-02-27T07:11:20;1.80;;;0.80;;
57891;SDS011;43708;48.828;9.166;2023-02-27T07:13:46;0.70;;;0.60;;
57891;SDS011;43708;48.828;9.166;2023-02-27T07:16:12;1.10;;;0.65;;
57891;SDS011;43708;48.828;9.166;2023-02-27T07:18:37;0.93;;;0.57;;
57891;SDS011;43708;48.828;9.166;2023-02-27T07:21:03;1.02;;;0.80;;
57891;SDS011;43708;48.828;9.166;2023-02-27T07:23:29;0.70;;;0.40;;
57891;SDS011;43708;48.828;9.166;2023-02-27T07:25:54;1.17;;;0.80;;
57891;SDS011;43708;48.828;9.166;2023-02-27T07:28:20;1.00;;;0.60;;
57891;SDS011;43708;48.828;9.166;2023-02-27T07:30:47;1.45;;;0.60;;
57891;SDS011;43708;48.828;9.166;2023-02-27T07:33:12;0.93;;;0.57;;
57891;SDS011;43708;48.828;9.166;2023-02-27T07:35:38;2.17;;;0.70;;
57891;SDS011;43708;48.828;9.166;2023-02-27T07:38:04;1.10;;;0.60;;
57891;SDS011;43708;48.828;9.166;2023-02-27T07:40:29;0.57;;;0.47;;
57891;SDS011;43708;48.828;9.166;2023-02-27T07:42:55;1.05;;;0.77;;
57891;SDS011;43708;48.828;9.166;2023-02-27T07:45:20;1.15;;;0.63;;
57891;SDS011;43708;48.828;9.166;2023-02-27T07:47:47;1.13;;;0.50;;
57891;SDS011;43708;48.828;9.166;2023-02-27T07:50:12;0.60;;;0.50;;
57891;SDS011;43708;48.828;9.166;2023-02-27T07:52:41;1.98;;;0.50;;
57891;SDS011;43708;48.828;9.166;2023-02-27T07:55:08;0.55;;;0.47;;
57891;SDS011;43708;48.828;9.166;2023-02-27T07:57:34;0.60;;;0.40;;
57891;SDS011;43708;48.828;9.166;2023-02-27T08:00:01;0.50;;;0.35;;
57891;SDS011;43708;48.828;9.166;2023-02-27T08:02:28;0.50;;;0.50;;
57891;SDS011;43708;48.828;9.166;2023-02-27T08:04:55;0.40;;;0.40;;
57891;SDS011;43708;48.828;9.166;2023-02-27T08:07:20;2.15;;;0.57;;
57891;SDS011;43708;48.828;9.166;2023-02-27T08:09:46;0.70;;;0.40;;
57891;SDS011;43708;48.828;9.166;2023-02-27T08:12:11;0.68;;;0.50;;
57891;SDS011;43708;48.828;9.166;2023-02-27T08:14:37;1.50;;;0.70;;
57891;SDS011;43708;48.828;9.166;2023-02-27T08:17:03;0.77;;;0.50;;
57891;SDS011;43708;48.828;9.166;2023-02-27T08:19:29;1.23;;;0.70;;
57891;SDS011;43708;48.828;9.166;2023-02-27T08:21:54;1.63;;;0.63;;
57891;SDS011;43708;48.828;9.166;2023-02-27T08:24:20;1.25;;;0.63;;
57891;SDS011;43708;48.828;9.166;2023-02-27T08:26:46;0.63;;;0.60;;
57891;SDS011;43708;48.828;9.166;2023-02-27T08:29:11;1.13;;;0.60;;
57891;SDS011;43708;48.828;9.166;2023-02-27T08:31:37;1.27;;;0.70;;
57891;SDS011;43708;48.828;9.166;2023-02-27T08:34:03;1.33;;;0.60;;
57891;SDS011;43708;48.828;9.166;2023-02-27T08:36:28;0.82;;;0.52;;
57891;SDS011;43708;48.828;9.166;2023-02-27T08:38:54;0.70;;;0.60;;
57891;SDS011;43708;48.828;9.166;2023-02-27T08:41:19;0.95;;;0.68;;
57891;SDS011;43708;48.828;9.166;2023-02-27T08:43:46;1.45;;;0.70;;
57891;SDS011;43708;48.828;9.166;2023-02-27T08:46:12;1.02;;;0.50;;
57891;SDS011;43708;48.828;9.166;2023-02-27T08:48:37;0.75;;;0.40;;
57891;SDS011;43708;48.828;9.166;2023-02-27T08:51:03;1.20;;;0.63;;
57891;SDS011;43708;48.828;9.166;2023-02-27T08:53:29;3.63;;;0.68;;
57891;SDS011;43708;48.828;9.166;2023-02-27T08:55:55;1.30;;;0.63;;
57891;SDS011;43708;48.828;9.166;2023-02-27T08:58:20;0.88;;;0.60;;
57891;SDS011;43708;48.828;9.166;2023-02-27T09:00:46;1.25;;;0.60;;
57891;SDS011;43708;48.828;9.166;2023-02-27T09:03:12;1.42;;;0.80;;
57891;SDS011;43708;48.828;9.166;2023-02-27T09:05:38;0.88;;;0.70;;
57891;SDS011;43708;48.828;9.166;2023-02-27T09:08:04;0.85;;;0.55;;
57891;SDS011;43708;48.828;9.166;2023-02-27T09:10:31;1.30;;;0.68;;
57891;SDS011;43708;48.828;9.166;2023-02-27T09:12:57;0.82;;;0.40;;
57891;SDS011;43708;48.828;9.166;2023-02-27T09:15:23;1.65;;;0.50;;
57891;SDS011;43708;48.828;9.166;2023-02-27T09:17:48;0.60;;;0.40;;
57891;SDS011;43708;48.828;9.166;2023-02-27T09:20:14;1.20;;;0.43;;
57891;SDS011;43708;48.828;9.166;2023-02-27T09:22:40;1.42;;;0.50;;
57891;SDS011;43708;48.828;9.166;2023-02-27T09:25:06;0.40;;;0.40;;
57891;SDS011;43708;48.828;9.166;2023-02-27T09:27:32;0.55;;;0.40;;
57891;SDS011;43708;48.828;9.166;2023-02-27T09:29:59;0.93;;;0.45;;
57891;SDS011;43708;48.828;9.166;2023-02-27T09:32:25;0.98;;;0.70;;
57891;SDS011;43708;48.828;9.166;2023-02-27T09:34:51;0.80;;;0.52;;
57891;SDS011;43708;48.828;9.166;2023-02-27T09:37:17;0.93;;;0.68;;
57891;SDS011;43708;48.828;9.166;2023-02-27T09:39:46;1.58;;;0.60;;
57891;SDS011;43708;48.828;9.166;2023-02-27T09:42:13;0.50;;;0.50;;
57891;SDS011;43708;48.828;9.166;2023-02-27T09:44:47;1.00;;;0.50;;
57891;SDS011;43708;48.828;9.166;2023-02-27T09:49:57;1.40;;;0.50;;
57891;SDS011;43708;48.828;9.166;2023-02-27T09:52:30;0.88;;;0.60;;
57891;SDS011;43708;48.828;9.166;2023-02-27T09:54:58;2.15;;;0.65;;
57891;SDS011;43708;48.828;9.166;2023-02-27T09:57:36;0.60;;;0.50;;
57891;SDS011;43708;48.828;9.166;2023-02-27T10:00:38;0.80;;;0.40;;
57891;SDS011;43708;48.828;9.166;2023-02-27T10:11:14;1.13;;;0.70;;
57891;SDS011;43708;48.828;9.166;2023-02-27T10:16:23;0.98;;;0.70;;
57891;SDS011;43708;48.828;9.166;2023-02-27T10:21:34;2.05;;;0.60;;
57891;SDS011;43708;48.828;9.166;2023-02-27T10:26:41;0.52;;;0.43;;
57891;SDS011;43708;48.828;9.166;2023-02-27T10:29:28;1.55;;;0.50;;
57891;SDS011;43708;48.828;9.166;2023-02-27T10:32:08;1.13;;;0.70;;
57891;SDS011;43708;48.828;9.166;2023-02-27T10:34:57;0.73;;;0.60;;
57891;SDS011;43708;48.828;9.166;2023-02-27T10:37:48;0.82;;;0.50;;
57891;SDS011;43708;48.828;9.166;2023-02-27T10:40:16;1.52;;;0.63;;
57891;SDS011;43708;48.828;9.166;2023-02-27T10:42:44;1.38;;;0.60;;
57891;SDS011;43708;48.828;9.166;2023-02-27T10:45:11;1.30;;;0.70;;
57891;SDS011;43708;48.828;9.166;2023-02-27T10:47:39;1.45;;;0.57;;
57891;SDS011;43708;48.828;9.166;2023-02-27T10:50:19;0.85;;;0.52;;
57891;SDS011;43708;48.828;9.166;2023-02-27T10:52:51;0.93;;;0.52;;
57891;SDS011;43708;48.828;9.166;2023-02-27T10:55:23;2.22;;;0.45;;
57891;SDS011;43708;48.828;9.166;2023-02-27T10:57:57;0.60;;;0.50;;
57891;SDS011;43708;48.828;9.166;2023-02-27T11:00:45;1.35;;;0.70;;
57891;SDS011;43708;48.828;9.166;2023-02-27T11:03:22;1.08;;;0.60;;
57891;SDS011;43708;48.828;9.166;2023-02-27T11:06:01;0.55;;;0.50;;
57891;SDS011;43708;48.828;9.166;2023-02-27T11:08:57;0.88;;;0.50;;
57891;SDS011;43708;48.828;9.166;2023-02-27T11:11:34;0.70;;;0.50;;
57891;SDS011;43708;48.828;9.166;2023-02-27T11:14:14;1.42;;;0.60;;
57891;SDS011;43708;48.828;9.166;2023-02-27T11:16:52;1.75;;;0.80;;
57891;SDS011;43708;48.828;9.166;2023-02-27T11:19:33;0.88;;;0.60;;
57891;SDS011;43708;48.828;9.166;2023-02-27T11:24:27;1.30;;;0.57;;
57891;SDS011;43708;48.828;9.166;2023-02-27T11:26:59;1.30;;;0.60;;
57891;SDS011;43708;48.828;9.166;2023-02-27T11:29:34;1.35;;;0.70;;
57891;SDS011;43708;48.828;9.166;2023-02-27T11:32:04;1.15;;;0.70;;
57891;SDS011;43708;48.828;9.166;2023-02-27T11:34:45;2.88;;;0.80;;
57891;SDS011;43708;48.828;9.166;2023-02-27T11:37:33;0.85;;;0.45;;
57891;SDS011;43708;48.828;9.166;2023-02-27T11:40:10;1.10;;;0.70;;
57891;SDS011;43708;48.828;9.166;2023-02-27T11:42:45;1.13;;;0.45;;
57891;SDS011;43708;48.828;9.166;2023-02-27T11:47:47;1.45;;;0.70;;
57891;SDS011;43708;48.828;9.166;2023-02-27T11:53:24;1.23;;;0.70;;
57891;SDS011;43708;48.828;9.166;2023-02-27T11:55:59;1.63;;;0.50;;
57891;SDS011;43708;48.828;9.166;2023-02-27T11:58:28;1.05;;;0.73;;
57891;SDS011;43708;48.828;9.166;2023-02-27T12:01:00;1.55;;;0.60;;
57891;SDS011;43708;48.828;9.166;2023-02-27T12:03:32;1.35;;;0.70;;
57891;SDS011;43708;48.828;9.166;2023-02-27T12:06:12;1.52;;;0.73;;
57891;SDS011;43708;48.828;9.166;2023-02-27T12:08:55;1.70;;;0.70;;
57891;SDS011;43708;48.828;9.166;2023-02-27T12:11:25;1.25;;;0.63;;
57891;SDS011;43708;48.828;9.166;2023-02-27T12:13:56;1.55;;;0.70;;
57891;SDS011;43708;48.828;9.166;2023-02-27T12:16:36;1.77;;;0.82;;
57891;SDS011;43708;48.828;9.166;2023-02-27T12:22:03;1.73;;;0.70;;
57891;SDS011;43708;48.828;9.166;2023-02-27T12:24:38;1.45;;;0.63;;
57891;SDS011;43708;48.828;9.166;2023-02-27T12:27:18;1.30;;;0.70;;
57891;SDS011;43708;48.828;9.166;2023-02-27T12:29:57;0.88;;;0.63;;
57891;SDS011;43708;48.828;9.166;2023-02-27T12:32:31;1.60;;;0.80;;
57891;SDS011;43708;48.828;9.166;2023-02-27T12:35:13;1.27;;;0.80;;
57891;SDS011;43708;48.828;9.166;2023-02-27T12:37:48;1.38;;;0.70;;
57891;SDS011;43708;48.828;9.166;2023-02-27T12:40:16;1.30;;;0.60;;
57891;SDS011;43708;48.828;9.166;2023-02-27T12:48:55;0.70;;;0.55;;
57891;SDS011;43708;48.828;9.166;2023-02-27T12:54:51;1.27;;;0.60;;
57891;SDS011;43708;48.828;9.166;2023-02-27T13:00:02;0.80;;;0.55;;
57891;SDS011;43708;48.828;9.166;2023-02-27T13:08:05;0.45;;;0.40;;
57891;SDS011;43708;48.828;9.166;2023-02-27T13:10:55;0.90;;;0.40;;
57891;SDS011;43708;48.828;9.166;2023-02-27T13:13:37;0.82;;;0.30;;
57891;SDS011;43708;48.828;9.166;2023-02-27T13:16:28;0.55;;;0.38;;
57891;SDS011;43708;48.828;9.166;2023-02-27T13:19:13;0.77;;;0.50;;
57891;SDS011;43708;48.828;9.166;2023-02-27T13:21:49;0.70;;;0.63;;
57891;SDS011;43708;48.828;9.166;2023-02-27T13:24:28;1.30;;;0.60;;
57891;SDS011;43708;48.828;9.166;2023-02-27T13:29:33;0.50;;;0.35;;
57891;SDS011;43708;48.828;9.166;2023-02-27T13:32:18;0.63;;;0.60;;
57891;SDS011;43708;48.828;9.166;2023-02-27T13:34:55;0.50;;;0.45;;
57891;SDS011;43708;48.828;9.166;2023-02-27T13:37:47;0.73;;;0.60;;
57891;SDS011;43708;48.828;9.166;2023-02-27T13:40:38;0.80;;;0.60;;
57891;SDS011;43708;48.828;9.166;2023-02-27T13:46:02;0.63;;;0.52;;
57891;SDS011;43708;48.828;9.166;2023-02-27T13:48:42;1.17;;;0.65;;
57891;SDS011;43708;48.828;9.166;2023-02-27T13:51:39;0.80;;;0.60;;
57891;SDS011;43708;48.828;9.166;2023-02-27T13:56:43;1.23;;;0.52;;
57891;SDS011;43708;48.828;9.166;2023-02-27T13:59:34;0.82;;;0.60;;
57891;SDS011;43708;48.828;9.166;2023-02-27T14:04:37;0.70;;;0.70;;
57891;SDS011;43708;48.828;9.166;2023-02-27T14:07:14;0.93;;;0.50;;
57891;SDS011;43708;48.828;9.166;2023-02-27T14:09:45;1.17;;;0.60;;
57891;SDS011;43708;48.828;9.166;2023-02-27T14:12:31;0.75;;;0.50;;
57891;SDS011;43708;48.828;9.166;2023-02-27T14:14:57;1.02;;;0.70;;
57891;SDS011;43708;48.828;9.166;2023-02-27T14:28:15;1.13;;;0.63;;
57891;SDS011;43708;48.828;9.166;2023-02-27T14:30:51;0.95;;;0.65;;
57891;SDS011;43708;48.828;9.166;2023-02-27T14:33:30;0.70;;;0.52;;
57891;SDS011;43708;48.828;9.166;2023-02-27T14:35:59;0.73;;;0.55;;
57891;SDS011;43708;48.828;9.166;2023-02-27T14:38:28;0.40;;;0.32;;
57891;SDS011;43708;48.828;9.166;2023-02-27T14:41:05;0.80;;;0.40;;
57891;SDS011;43708;48.828;9.166;2023-02-27T14:43:39;1.35;;;0.60;;
57891;SDS011;43708;48.828;9.166;2023-02-27T14:46:18;0.50;;;0.30;;
57891;SDS011;43708;48.828;9.166;2023-02-27T14:48:46;0.73;;;0.40;;
57891;SDS011;43708;48.828;9.166;2023-02-27T14:51:16;0.70;;;0.50;;
57891;SDS011;43708;48.828;9.166;2023-02-27T14:53:41;0.80;;;0.50;;
57891;SDS011;43708;48.828;9.166;2023-02-27T14:56:14;0.95;;;0.47;;
57891;SDS011;43708;48.828;9.166;2023-02-27T14:58:45;0.93;;;0.50;;
57891;SDS011;43708;48.828;9.166;2023-02-27T15:01:13;1.50;;;0.80;;
57891;SDS011;43708;48.828;9.166;2023-02-27T15:06:42;0.85;;;0.43;;
57891;SDS011;43708;48.828;9.166;2023-02-27T15:11:58;0.75;;;0.50;;
57891;SDS011;43708;48.828;9.166;2023-02-27T15:14:27;0.50;;;0.43;;
57891;SDS011;43708;48.828;9.166;2023-02-27T15:16:57;0.57;;;0.45;;
57891;SDS011;43708;48.828;9.166;2023-02-27T15:21:56;1.25;;;0.68;;
57891;SDS011;43708;48.828;9.166;2023-02-27T15:24:28;0.85;;;0.52;;
57891;SDS011;43708;48.828;9.166;2023-02-27T15:29:28;2.17;;;0.70;;
57891;SDS011;43708;48.828;9.166;2023-02-27T15:31:59;13.90;;;0.95;;
57891;SDS011;43708;48.828;9.166;2023-02-27T15:34:26;1.15;;;0.50;;
57891;SDS011;43708;48.828;9.166;2023-02-27T15:36:54;0.85;;;0.57;;
57891;SDS011;43708;48.828;9.166;2023-02-27T15:39:21;1.25;;;0.60;;
57891;SDS011;43708;48.828;9.166;2023-02-27T15:41:50;3.33;;;0.80;;
57891;SDS011;43708;48.828;9.166;2023-02-27T15:44:38;0.50;;;0.40;;
57891;SDS011;43708;48.828;9.166;2023-02-27T15:47:08;0.88;;;0.40;;
57891;SDS011;43708;48.828;9.166;2023-02-27T15:49:37;0.80;;;0.43;;
57891;SDS011;43708;48.828;9.166;2023-02-27T15:52:04;3.88;;;0.65;;
57891;SDS011;43708;48.828;9.166;2023-02-27T15:54:36;0.55;;;0.30;;
57891;SDS011;43708;48.828;9.166;2023-02-27T15:57:11;1.70;;;0.70;;
57891;SDS011;43708;48.828;9.166;2023-02-27T15:59:38;0.80;;;0.43;;
57891;SDS011;43708;48.828;9.166;2023-02-27T16:02:29;1.95;;;0.68;;
57891;SDS011;43708;48.828;9.166;2023-02-27T16:04:55;2.20;;;0.60;;
57891;SDS011;43708;48.828;9.166;2023-02-27T16:07:22;1.88;;;0.52;;
57891;SDS011;43708;48.828;9.166;2023-02-27T16:09:53;0.40;;;0.32;;
57891;SDS011;43708;48.828;9.166;2023-02-27T16:20:28;1.77;;;0.40;;
57891;SDS011;43708;48.828;9.166;2023-02-27T16:23:14;0.60;;;0.50;;
57891;SDS011;43708;48.828;9.166;2023-02-27T16:29:05;0.45;;;0.30;;
57891;SDS011;43708;48.828;9.166;2023-02-27T16:31:45;0.43;;;0.40;;
57891;SDS011;43708;48.828;9.166;2023-02-27T16:34:24;0.68;;;0.40;;
57891;SDS011;43708;48.828;9.166;2023-02-27T16:37:01;0.50;;;0.40;;
57891;SDS011;43708;48.828;9.166;2023-02-27T16:39:29;0.40;;;0.30;;
57891;SDS011;43708;48.828;9.166;2023-02-27T16:41:57;0.32;;;0.20;;
57891;SDS011;43708;48.828;9.166;2023-02-27T16:44:24;0.30;;;0.20;;
57891;SDS011;43708;48.828;9.166;2023-02-27T16:46:50;0.30;;;0.30;;
57891;SDS011;43708;48.828;9.166;2023-02-27T16:49:18;1.15;;;0.50;;
57891;SDS011;43708;48.828;9.166;2023-02-27T16:51:43;0.50;;;0.40;;
57891;SDS011;43708;48.828;9.166;2023-02-27T16:54:09;0.70;;;0.45;;
57891;SDS011;43708;48.828;9.166;2023-02-27T16:56:37;0.40;;;0.30;;
57891;SDS011;43708;48.828;9.166;2023-02-27T16:59:02;0.60;;;0.30;;
57891;SDS011;43708;48.828;9.166;2023-02-27T17:01:28;1.20;;;0.32;;
57891;SDS011;43708;48.828;9.166;2023-02-27T17:03:54;0.47;;;0.40;;
57891;SDS011;43708;48.828;9.166;2023-02-27T17:06:19;0.65;;;0.47;;
57891;SDS011;43708;48.828;9.166;2023-02-27T17:08:45;0.43;;;0.30;;
57891;SDS011;43708;48.828;9.166;2023-02-27T17:11:10;0.57;;;0.40;;
57891;SDS011;43708;48.828;9.166;2023-02-27T17:13:36;0.80;;;0.47;;
57891;SDS011;43708;48.828;9.166;2023-02-27T17:16:02;0.75;;;0.40;;
57891;SDS011;43708;48.828;9.166;2023-02-27T17:18:28;1.00;;;0.40;;
57891;SDS011;43708;48.828;9.166;2023-02-27T17:20:54;0.40;;;0.35;;
57891;SDS011;43708;48.828;9.166;2023-02-27T17:23:23;1.33;;;0.43;;
57891;SDS011;43708;48.828;9.166;2023-02-27T17:25:50;0.90;;;0.60;;
57891;SDS011;43708;48.828;9.166;2023-02-27T17:28:16;1.02;;;0.35;;
57891;SDS011;43708;48.828;9.166;2023-02-27T17:30:42;0.80;;;0.50;;
57891;SDS011;43708;48.828;9.166;2023-02-27T17:33:07;0.75;;;0.45;;
57891;SDS011;43708;48.828;9.166;2023-02-27T17:35:33;0.88;;;0.55;;
57891;SDS011;43708;48.828;9.166;2023-02-27T17:37:58;0.52;;;0.40;;
57891;SDS011;43708;48.828;9.166;2023-02-27T17:40:24;1.33;;;0.70;;
57891;SDS011;43708;48.828;9.166;2023-02-27T17:42:50;0.80;;;0.55;;
57891;SDS011;43708;48.828;9.166;2023-02-27T17:45:16;0.50;;;0.40;;